LIM weather

Jorge Chávez International Airport
Lima, Lima Region, Perú

Public forecast

Using degrees Celsius for public forecast. Weather courtesy of forecast.io.

Current aviation weather report (METAR) for Jorge Chávez International Airport

Retrieved 2019/10/19 03:00 UTC (2 minutes ago):

SPJC 190300Z 16010KT 9999 FEW009 OVC020 18/15 Q1017 NOSIG RMK PP000

Closest aviation forecast (TAF) to Jorge Chávez International Airport

Retrieved 2019-10-19 00:37 UTC (2 hours ago):

TAF SPJC 182300Z 1900/1924 18005KT 8000 OVC016 TX21/1919Z TN16/1911Z BECMG 1902/1904 OVC014 FM190800 30005KT 7000 OVC012 TEMPO 1910/1912 4500 BR OVC009 BECMG 1913/1915 SCT012 OVC016